Time;durP1;ratioP1;P1;durP2;ratioP2;P2;SDS_P1;SDS_P2;PMS_P1;PMS_P2;Temp;Humidity;BMP_temperature;BMP_pressure;BME280_temperature;BME280_humidity;BME280_pressure;Samples;Min_cycle;Max_cycle;Signal;HPM_P1;HPM_P2
2021/06/22 00:00:09;;;;;;;3.15;1.80;;;26.20;60.30;;;;;;5006206;28;20534;-60
2021/06/22 00:02:35;;;;;;;2.58;1.17;;;26.30;59.70;;;;;;5008562;28;20029;-60
2021/06/22 00:05:02;;;;;;;5.30;1.58;;;26.30;59.80;;;;;;5007855;28;20422;-60
2021/06/22 00:07:28;;;;;;;3.05;1.58;;;26.30;59.80;;;;;;5008283;28;20072;-65
2021/06/22 00:09:53;;;;;;;3.85;1.55;;;26.30;59.70;;;;;;5011318;28;20497;-60
2021/06/22 00:12:19;;;;;;;3.45;1.42;;;26.30;59.70;;;;;;5004322;28;20498;-59
2021/06/22 00:14:44;;;;;;;3.03;1.52;;;26.30;59.70;;;;;;5011884;28;20124;-60
2021/06/22 00:17:10;;;;;;;1.88;1.55;;;26.30;59.70;;;;;;5008889;28;20482;-59
2021/06/22 00:19:36;;;;;;;2.25;1.40;;;26.30;59.60;;;;;;5004426;28;20041;-60
2021/06/22 00:22:02;;;;;;;2.35;1.35;;;26.30;59.70;;;;;;5006608;28;20667;-60
2021/06/22 00:24:28;;;;;;;4.35;1.70;;;26.30;59.70;;;;;;5009671;28;20140;-64
2021/06/22 00:26:54;;;;;;;2.40;1.35;;;26.40;59.90;;;;;;5004990;28;20123;-61
2021/06/22 00:29:22;;;;;;;3.22;1.50;;;26.30;59.70;;;;;;5004144;28;20030;-61
2021/06/22 00:31:48;;;;;;;5.43;1.83;;;26.30;59.70;;;;;;5006756;28;20085;-62
2021/06/22 00:34:13;;;;;;;3.78;1.58;;;26.30;59.80;;;;;;5012550;28;20057;-61
2021/06/22 00:36:39;;;;;;;2.60;1.60;;;26.20;59.90;;;;;;5007481;28;20044;-61
2021/06/22 00:39:05;;;;;;;4.20;1.50;;;26.20;60.10;;;;;;5005187;28;20037;-61
2021/06/22 00:41:31;;;;;;;2.03;1.50;;;26.20;59.90;;;;;;5008804;28;20036;-61
2021/06/22 00:44:07;;;;;;;3.92;1.85;;;26.20;59.80;;;;;;5010500;28;20460;-61
2021/06/22 00:46:33;;;;;;;5.68;1.60;;;26.20;60.00;;;;;;5003481;28;20026;-61
2021/06/22 00:49:00;;;;;;;5.38;1.60;;;26.00;60.00;;;;;;5004903;28;20444;-60
2021/06/22 00:51:26;;;;;;;3.88;1.40;;;25.90;60.50;;;;;;5004435;28;20050;-63
2021/06/22 00:53:51;;;;;;;3.08;1.38;;;25.90;60.40;;;;;;5002348;28;20030;-61
2021/06/22 00:56:17;;;;;;;3.33;1.30;;;25.90;60.50;;;;;;5004615;28;20033;-60
2021/06/22 00:58:43;;;;;;;8.63;1.40;;;26.00;60.20;;;;;;5008787;28;20049;-60
2021/06/22 01:01:09;;;;;;;4.90;1.45;;;26.20;59.90;;;;;;5006277;28;20028;-61
2021/06/22 01:03:34;;;;;;;3.80;1.25;;;26.20;59.70;;;;;;5006371;28;20034;-61
2021/06/22 01:06:01;;;;;;;1.65;1.20;;;26.20;59.60;;;;;;5005635;28;20076;-60
2021/06/22 01:08:27;;;;;;;1.73;1.40;;;26.20;59.50;;;;;;5008508;28;20040;-64
2021/06/22 01:10:53;;;;;;;2.92;1.40;;;26.10;59.10;;;;;;5000951;28;20537;-59
2021/06/22 01:13:19;;;;;;;2.45;1.38;;;26.20;59.10;;;;;;5002737;28;20034;-60
2021/06/22 01:15:44;;;;;;;1.58;1.15;;;26.10;59.10;;;;;;5011594;28;20022;-60
2021/06/22 01:18:10;;;;;;;3.30;1.40;;;26.20;59.00;;;;;;5002826;28;20029;-60
2021/06/22 01:20:37;;;;;;;2.38;1.33;;;26.20;58.70;;;;;;5003750;28;20118;-60
2021/06/22 01:23:05;;;;;;;4.28;1.30;;;26.20;58.60;;;;;;5006322;28;20087;-60
2021/06/22 01:25:32;;;;;;;3.65;1.30;;;26.20;58.60;;;;;;4997275;28;20060;-60
2021/06/22 01:27:57;;;;;;;3.03;1.73;;;26.20;58.60;;;;;;5007343;28;20026;-60
2021/06/22 01:30:25;;;;;;;2.80;1.38;;;26.20;58.50;;;;;;5003715;28;21038;-60
2021/06/22 01:32:50;;;;;;;3.38;1.30;;;26.20;58.30;;;;;;5005566;28;20034;-60
2021/06/22 01:35:16;;;;;;;4.25;1.02;;;26.20;58.20;;;;;;5007742;28;20463;-60
2021/06/22 01:37:57;;;;;;;3.13;1.38;;;26.20;58.10;;;;;;5004370;28;20041;-60
2021/06/22 01:40:24;;;;;;;4.65;1.38;;;26.20;58.00;;;;;;5008703;28;20523;-59
2021/06/22 01:42:50;;;;;;;2.92;1.17;;;26.20;58.10;;;;;;5005195;28;20116;-60
2021/06/22 01:45:16;;;;;;;4.82;1.48;;;26.20;58.20;;;;;;5003034;28;20050;-60
2021/06/22 01:47:43;;;;;;;3.90;1.38;;;26.20;58.10;;;;;;5001961;28;20025;-60
2021/06/22 01:50:10;;;;;;;4.43;1.52;;;26.20;58.10;;;;;;5006717;28;20418;-59
2021/06/22 01:52:36;;;;;;;4.05;2.08;;;26.20;58.20;;;;;;5005656;28;20050;-60
2021/06/22 01:55:35;;;;;;;2.13;1.23;;;26.20;58.20;;;;;;5006676;28;20072;-60
2021/06/22 01:57:49;;;;;;;1.75;1.05;;;26.20;58.20;;;;;;5007286;28;20093;-60
2021/06/22 02:00:16;;;;;;;2.20;1.10;;;26.20;58.30;;;;;;5012119;28;20022;-59
2021/06/22 02:02:42;;;;;;;2.25;1.20;;;26.20;58.30;;;;;;5011908;28;20360;-62
2021/06/22 02:05:08;;;;;;;4.47;1.40;;;26.10;58.40;;;;;;5012063;28;20025;-59
2021/06/22 02:07:33;;;;;;;1.60;1.20;;;26.10;58.60;;;;;;5011404;28;20533;-59
2021/06/22 02:09:59;;;;;;;3.90;1.30;;;26.10;58.70;;;;;;5011117;28;20030;-59
2021/06/22 02:12:25;;;;;;;2.40;1.10;;;26.10;58.70;;;;;;5012231;28;20030;-60
2021/06/22 02:14:50;;;;;;;3.90;1.63;;;26.10;58.70;;;;;;5011093;28;20080;-60
2021/06/22 02:17:16;;;;;;;1.77;1.10;;;26.10;58.70;;;;;;5012137;28;20030;-59
2021/06/22 02:19:42;;;;;;;2.88;1.42;;;26.10;58.60;;;;;;5011073;28;20109;-59
2021/06/22 02:22:07;;;;;;;2.03;1.20;;;26.10;58.70;;;;;;5011397;28;20112;-59
2021/06/22 02:24:33;;;;;;;2.08;1.20;;;26.10;58.70;;;;;;5010580;28;20037;-58
2021/06/22 02:26:59;;;;;;;2.50;1.52;;;26.10;58.60;;;;;;5011249;28;20026;-58
2021/06/22 02:29:24;;;;;;;3.63;1.25;;;26.10;58.60;;;;;;5013065;28;20038;-58
2021/06/22 02:31:50;;;;;;;1.55;1.10;;;26.10;58.50;;;;;;5012836;28;20498;-59
2021/06/22 02:34:16;;;;;;;4.85;1.40;;;26.10;58.50;;;;;;5012130;28;20029;-59
2021/06/22 02:36:42;;;;;;;4.93;1.45;;;26.10;58.50;;;;;;5011214;28;20037;-58
2021/06/22 02:39:07;;;;;;;4.38;2.08;;;26.10;58.40;;;;;;5017477;28;20069;-61
2021/06/22 02:41:33;;;;;;;1.92;1.38;;;26.10;58.40;;;;;;5011004;28;20087;-58
2021/06/22 02:43:59;;;;;;;2.42;1.75;;;26.10;58.50;;;;;;5011646;28;20072;-58
2021/06/22 02:46:24;;;;;;;3.53;1.27;;;26.10;58.60;;;;;;5017594;28;20061;-58
2021/06/22 02:48:50;;;;;;;3.78;1.42;;;26.10;58.60;;;;;;5009363;28;20835;-59
2021/06/22 02:51:15;;;;;;;1.88;1.30;;;26.10;58.60;;;;;;5011441;28;20030;-58
2021/06/22 02:53:41;;;;;;;3.50;1.20;;;26.10;58.50;;;;;;5010775;28;20052;-60
2021/06/22 02:56:07;;;;;;;5.57;1.70;;;26.00;58.40;;;;;;5010027;28;20491;-59
2021/06/22 02:58:32;;;;;;;4.68;1.60;;;26.00;58.40;;;;;;5010354;28;20042;-59
2021/06/22 03:00:58;;;;;;;3.20;1.63;;;26.10;58.50;;;;;;5011129;28;20069;-58
2021/06/22 03:03:23;;;;;;;7.22;1.63;;;26.00;58.40;;;;;;5003168;28;20399;-59
2021/06/22 03:05:49;;;;;;;4.70;1.30;;;26.00;58.40;;;;;;5011082;28;20022;-59
2021/06/22 03:08:15;;;;;;;3.53;1.85;;;26.00;58.40;;;;;;5010790;28;20030;-59
2021/06/22 03:10:40;;;;;;;3.60;1.30;;;26.00;58.30;;;;;;5010108;28;20498;-59
2021/06/22 03:13:06;;;;;;;4.45;1.48;;;26.10;58.40;;;;;;5011383;28;20029;-59
2021/06/22 03:15:32;;;;;;;2.60;1.30;;;26.10;58.40;;;;;;5010502;28;20109;-59
2021/06/22 03:17:57;;;;;;;2.72;1.58;;;26.10;58.40;;;;;;5011241;28;20486;-59
2021/06/22 03:20:23;;;;;;;3.35;1.52;;;26.10;58.40;;;;;;5011494;28;20038;-60
2021/06/22 03:22:49;;;;;;;5.57;1.55;;;26.10;58.40;;;;;;5010506;28;20025;-59
2021/06/22 03:25:15;;;;;;;1.75;1.20;;;26.10;58.40;;;;;;5010846;28;20431;-60
2021/06/22 03:27:41;;;;;;;4.95;1.10;;;26.10;58.30;;;;;;5010281;28;20036;-59
2021/06/22 03:30:09;;;;;;;1.95;1.10;;;26.10;58.30;;;;;;5011416;28;20034;-59
2021/06/22 03:32:35;;;;;;;2.28;1.20;;;26.10;58.30;;;;;;5009964;28;20424;-59
2021/06/22 03:35:06;;;;;;;2.55;1.08;;;26.10;58.20;;;;;;5013822;28;20062;-59
2021/06/22 03:37:32;;;;;;;2.15;1.10;;;26.10;58.20;;;;;;5012507;28;20026;-60
2021/06/22 03:39:58;;;;;;;4.65;1.60;;;26.10;58.10;;;;;;5014549;28;20037;-59
2021/06/22 03:42:23;;;;;;;5.35;1.30;;;26.10;58.10;;;;;;5014904;28;20022;-59
2021/06/22 03:44:49;;;;;;;5.00;1.23;;;26.00;58.10;;;;;;5013816;28;20052;-59
2021/06/22 03:47:17;;;;;;;3.85;1.40;;;26.00;58.10;;;;;;5014497;28;20379;-60
2021/06/22 03:49:43;;;;;;;3.85;1.30;;;26.10;57.90;;;;;;5012450;28;20088;-61
2021/06/22 03:52:08;;;;;;;3.92;1.30;;;26.10;57.90;;;;;;5014306;28;20042;-59
2021/06/22 03:54:34;;;;;;;1.90;1.17;;;26.00;57.70;;;;;;5013556;28;20025;-60
2021/06/22 03:57:00;;;;;;;2.10;1.10;;;26.00;57.70;;;;;;5014133;28;20022;-59
2021/06/22 03:59:25;;;;;;;2.08;1.45;;;26.00;57.60;;;;;;5014153;28;20074;-59
2021/06/22 04:01:51;;;;;;;3.42;1.30;;;26.00;57.60;;;;;;5013725;28;20034;-59
2021/06/22 04:04:16;;;;;;;2.90;1.20;;;26.00;57.80;;;;;;5014395;28;20062;-59
2021/06/22 04:06:42;;;;;;;2.65;1.30;;;26.00;57.70;;;;;;5012221;28;20037;-59
2021/06/22 04:09:08;;;;;;;4.00;1.75;;;26.00;57.70;;;;;;5010139;28;20034;-59
2021/06/22 04:11:33;;;;;;;3.55;1.90;;;26.10;57.80;;;;;;5013116;28;20037;-61
2021/06/22 04:13:59;;;;;;;2.67;1.55;;;26.00;57.80;;;;;;5014029;28;20041;-59
2021/06/22 04:16:25;;;;;;;2.47;1.23;;;26.10;57.80;;;;;;5014290;28;20439;-60
2021/06/22 04:18:50;;;;;;;1.70;1.17;;;26.10;57.90;;;;;;5012943;28;20233;-59
2021/06/22 04:21:16;;;;;;;2.13;1.35;;;26.00;58.00;;;;;;5014180;28;20459;-59
2021/06/22 04:23:41;;;;;;;4.30;2.03;;;26.10;57.80;;;;;;5012658;28;20344;-60
2021/06/22 04:26:07;;;;;;;1.80;1.38;;;26.10;57.70;;;;;;5014165;28;20455;-59
2021/06/22 04:28:33;;;;;;;3.00;1.52;;;26.10;57.70;;;;;;5028210;28;20045;-60
2021/06/22 04:30:58;;;;;;;5.28;1.70;;;26.10;57.80;;;;;;5013688;28;20036;-59
2021/06/22 04:33:24;;;;;;;2.63;1.70;;;26.00;57.80;;;;;;5013780;28;20033;-59
2021/06/22 04:35:50;;;;;;;4.72;1.48;;;26.10;58.00;;;;;;5012382;28;20139;-60
2021/06/22 04:38:16;;;;;;;3.33;1.40;;;26.00;58.00;;;;;;5013845;28;20038;-59
2021/06/22 04:40:42;;;;;;;2.67;1.42;;;26.00;58.10;;;;;;5012956;28;20026;-59
2021/06/22 04:43:08;;;;;;;4.72;1.40;;;26.00;57.90;;;;;;5012983;28;20022;-59
2021/06/22 04:45:34;;;;;;;5.00;1.48;;;26.00;57.70;;;;;;5011921;28;20115;-60
2021/06/22 04:48:00;;;;;;;4.80;1.80;;;26.00;57.80;;;;;;5012840;28;20041;-59
2021/06/22 04:50:26;;;;;;;5.32;1.55;;;26.00;57.90;;;;;;5013410;28;20471;-60
2021/06/22 04:52:52;;;;;;;6.50;2.78;;;26.00;57.90;;;;;;5012270;28;20096;-59
2021/06/22 04:55:23;;;;;;;3.13;2.60;;;25.90;58.30;;;;;;5013663;28;20383;-59
2021/06/22 04:57:49;;;;;;;5.03;3.35;;;25.60;59.40;;;;;;5012128;28;20125;-60
2021/06/22 05:00:15;;;;;;;6.40;3.25;;;25.60;59.80;;;;;;5013425;28;20033;-59
2021/06/22 05:02:42;;;;;;;8.48;3.40;;;25.70;59.60;;;;;;5012238;28;20494;-59
2021/06/22 05:05:10;;;;;;;6.50;3.53;;;25.70;59.70;;;;;;5012749;28;20541;-59
2021/06/22 05:07:35;;;;;;;6.18;2.92;;;25.70;60.00;;;;;;5011714;28;20042;-60
2021/06/22 05:10:02;;;;;;;5.68;3.50;;;25.60;60.30;;;;;;5010929;28;20065;-59
2021/06/22 05:12:27;;;;;;;3.42;2.90;;;25.70;60.30;;;;;;5005671;28;20055;-63
2021/06/22 05:14:53;;;;;;;5.75;3.30;;;25.80;60.10;;;;;;5039569;28;20025;-59
2021/06/22 05:17:19;;;;;;;4.75;3.28;;;25.90;60.00;;;;;;5007870;28;20030;-59
2021/06/22 05:19:45;;;;;;;4.28;3.15;;;25.80;60.00;;;;;;5005831;28;20530;-59
2021/06/22 05:22:12;;;;;;;7.93;3.70;;;25.90;60.00;;;;;;5008594;28;20038;-59
2021/06/22 05:24:38;;;;;;;4.95;2.40;;;25.90;60.00;;;;;;5005468;28;20026;-59
2021/06/22 05:27:04;;;;;;;6.63;3.10;;;25.90;60.00;;;;;;5012502;28;20038;-59
2021/06/22 05:29:29;;;;;;;3.47;2.97;;;26.00;60.00;;;;;;5012444;28;20030;-63
2021/06/22 05:31:55;;;;;;;3.45;2.58;;;26.00;60.00;;;;;;5012446;28;20108;-60
2021/06/22 05:34:21;;;;;;;4.07;2.63;;;26.00;60.00;;;;;;5012126;28;20463;-59
2021/06/22 05:36:47;;;;;;;4.70;3.67;;;26.00;59.90;;;;;;5011159;28;20026;-60
2021/06/22 05:39:14;;;;;;;7.00;3.78;;;25.80;60.40;;;;;;5011798;28;20048;-59
2021/06/22 05:41:39;;;;;;;4.25;3.30;;;25.30;62.60;;;;;;5011830;28;20065;-60
2021/06/22 05:44:05;;;;;;;5.38;3.08;;;25.30;62.00;;;;;;5011740;28;20065;-60
2021/06/22 05:46:31;;;;;;;5.43;2.80;;;25.50;61.80;;;;;;5010987;28;20041;-63
2021/06/22 05:48:57;;;;;;;3.38;2.50;;;25.70;61.30;;;;;;5017836;28;20052;-60
2021/06/22 05:51:24;;;;;;;4.00;3.05;;;25.80;61.00;;;;;;5031293;28;20049;-59
2021/06/22 05:53:50;;;;;;;3.95;3.35;;;25.80;61.20;;;;;;5025276;28;20025;-61
2021/06/22 05:56:16;;;;;;;4.97;3.03;;;25.90;61.00;;;;;;5010756;28;20392;-62
2021/06/22 05:58:41;;;;;;;5.75;2.95;;;25.90;61.10;;;;;;5011055;28;20045;-60
2021/06/22 06:01:07;;;;;;;6.30;2.90;;;26.00;61.00;;;;;;5011988;28;20030;-61
2021/06/22 06:03:33;;;;;;;6.55;2.90;;;26.10;60.80;;;;;;5010885;28;20069;-61
2021/06/22 06:06:01;;;;;;;7.43;2.90;;;26.10;60.80;;;;;;5011302;28;20032;-57
2021/06/22 06:08:26;;;;;;;3.60;2.80;;;26.00;60.90;;;;;;5038593;28;20121;-58
2021/06/22 06:10:52;;;;;;;6.90;2.90;;;26.00;60.80;;;;;;5011199;28;20589;-58
2021/06/22 06:13:17;;;;;;;4.22;2.38;;;26.00;60.90;;;;;;5012018;28;20101;-58
2021/06/22 06:15:43;;;;;;;5.72;2.53;;;26.00;60.80;;;;;;5011388;28;20034;-57
2021/06/22 06:18:09;;;;;;;5.60;2.85;;;26.00;60.60;;;;;;5011908;28;20057;-57
2021/06/22 06:20:34;;;;;;;5.28;2.63;;;26.00;60.70;;;;;;5010981;28;20038;-57
2021/06/22 06:23:00;;;;;;;5.95;2.55;;;26.00;60.50;;;;;;5012094;28;20026;-58
2021/06/22 06:25:26;;;;;;;5.95;2.70;;;26.10;60.50;;;;;;5011416;28;20105;-57
2021/06/22 06:28:04;;;;;;;4.75;2.60;;;26.10;60.40;;;;;;5010694;28;20053;-57
2021/06/22 06:30:31;;;;;;;4.85;2.70;;;26.10;60.40;;;;;;5010285;28;20431;-58
2021/06/22 06:32:57;;;;;;;7.22;3.78;;;26.00;60.50;;;;;;5011778;28;20080;-57
2021/06/22 06:35:23;;;;;;;6.80;3.60;;;25.90;61.00;;;;;;5014284;28;20033;-58
2021/06/22 06:37:50;;;;;;;6.32;3.70;;;25.60;61.80;;;;;;5010756;28;20034;-58
2021/06/22 06:40:16;;;;;;;9.65;5.03;;;25.50;62.40;;;;;;5011366;28;20464;-57
2021/06/22 06:42:42;;;;;;;8.25;3.83;;;25.40;62.70;;;;;;5010456;28;20468;-58
2021/06/22 06:45:10;;;;;;;9.10;3.72;;;25.30;62.80;;;;;;5011405;28;20081;-58
2021/06/22 06:47:36;;;;;;;8.38;4.53;;;25.20;63.00;;;;;;5010645;28;20365;-58
2021/06/22 06:50:03;;;;;;;6.03;3.60;;;25.10;63.20;;;;;;5011720;28;20158;-58
2021/06/22 06:52:29;;;;;;;9.90;4.15;;;25.10;63.20;;;;;;5011273;28;20050;-58
2021/06/22 06:54:55;;;;;;;9.98;4.00;;;25.00;63.30;;;;;;5010580;28;20041;-59
2021/06/22 06:57:21;;;;;;;9.13;4.63;;;24.80;64.90;;;;;;4999558;28;20518;-58
2021/06/22 06:59:46;;;;;;;9.77;4.18;;;24.50;65.90;;;;;;5007272;28;20046;-58
2021/06/22 07:02:12;;;;;;;7.95;4.15;;;24.50;66.40;;;;;;5012660;28;20084;-59
2021/06/22 07:04:38;;;;;;;7.95;3.83;;;24.50;66.10;;;;;;5010233;28;20033;-58
2021/06/22 07:07:04;;;;;;;10.02;4.75;;;24.40;66.20;;;;;;5008898;28;20112;-58
2021/06/22 07:09:30;;;;;;;7.20;4.68;;;24.50;66.20;;;;;;5009039;28;20098;-58
2021/06/22 07:11:57;;;;;;;8.68;5.10;;;24.20;66.00;;;;;;5014492;28;20108;-58
2021/06/22 07:14:23;;;;;;;11.32;4.47;;;24.10;67.00;;;;;;5014312;28;20563;-59
2021/06/22 07:16:50;;;;;;;9.63;4.75;;;24.20;67.00;;;;;;5014512;28;20109;-58
2021/06/22 07:19:16;;;;;;;7.07;3.88;;;24.20;66.70;;;;;;5014786;28;20046;-59
2021/06/22 07:21:41;;;;;;;13.48;5.00;;;24.30;67.50;;;;;;5013260;28;20041;-58
2021/06/22 07:24:08;;;;;;;7.75;4.65;;;24.10;66.40;;;;;;5013825;28;20037;-58
2021/06/22 07:26:34;;;;;;;8.52;4.75;;;24.10;67.30;;;;;;5014199;28;20038;-58
2021/06/22 07:29:00;;;;;;;8.88;4.55;;;24.10;66.90;;;;;;5019121;28;20045;-58
2021/06/22 07:31:26;;;;;;;9.68;4.60;;;23.90;67.70;;;;;;5014616;28;20029;-58
2021/06/22 07:33:52;;;;;;;10.57;5.22;;;24.10;66.60;;;;;;5013743;28;20185;-58
2021/06/22 07:36:18;;;;;;;5.35;4.20;;;24.10;66.70;;;;;;5014706;28;20030;-58
2021/06/22 07:38:44;;;;;;;7.63;4.20;;;24.30;66.70;;;;;;5012767;28;20038;-58
2021/06/22 07:41:10;;;;;;;8.60;4.38;;;24.50;66.30;;;;;;5014386;28;20044;-58
2021/06/22 07:43:35;;;;;;;6.63;3.95;;;24.50;65.60;;;;;;5013422;28;20057;-58
2021/06/22 07:46:01;;;;;;;9.63;3.90;;;24.50;65.30;;;;;;5014584;28;20406;-58
2021/06/22 07:48:27;;;;;;;5.82;3.75;;;24.50;65.20;;;;;;5014100;28;20034;-59
2021/06/22 07:50:52;;;;;;;6.65;3.20;;;24.50;65.10;;;;;;5013319;28;20045;-59
2021/06/22 07:53:19;;;;;;;4.80;3.20;;;24.50;65.10;;;;;;5014488;28;20057;-59
2021/06/22 07:55:45;;;;;;;5.00;3.30;;;24.60;64.70;;;;;;5013322;28;20042;-59
2021/06/22 07:58:11;;;;;;;8.63;3.92;;;24.70;64.90;;;;;;5008844;28;20108;-59
2021/06/22 08:03:06;;;;;;;5.07;3.47;;;24.60;64.10;;;;;;5014235;28;20079;-59
2021/06/22 08:05:32;;;;;;;7.95;3.70;;;24.40;64.20;;;;;;5013390;28;20022;-58
2021/06/22 08:07:58;;;;;;;4.20;3.30;;;24.50;65.10;;;;;;5007523;28;20030;-59
2021/06/22 08:10:24;;;;;;;6.55;2.88;;;24.50;64.60;;;;;;5012385;28;20026;-59
2021/06/22 08:12:49;;;;;;;6.15;3.25;;;24.40;64.30;;;;;;5013046;28;20045;-57
2021/06/22 08:15:16;;;;;;;5.93;2.30;;;24.70;63.60;;;;;;5013329;28;20391;-57
2021/06/22 08:17:42;;;;;;;4.25;2.00;;;25.00;62.40;;;;;;5007534;28;20471;-58
2021/06/22 08:20:08;;;;;;;6.07;2.30;;;25.30;62.10;;;;;;5014027;28;20036;-57
2021/06/22 08:22:34;;;;;;;4.60;2.20;;;25.50;61.70;;;;;;5013178;28;20105;-56
2021/06/22 08:25:00;;;;;;;5.57;2.00;;;25.60;61.30;;;;;;5013124;28;20112;-58
2021/06/22 08:27:26;;;;;;;7.15;2.10;;;25.70;61.00;;;;;;5019417;28;20037;-58
2021/06/22 08:29:52;;;;;;;4.18;1.80;;;25.80;60.80;;;;;;5012394;28;20042;-57
2021/06/22 08:32:17;;;;;;;2.83;1.85;;;25.90;60.70;;;;;;5012759;28;20034;-57
2021/06/22 08:34:43;;;;;;;8.00;2.08;;;25.90;60.60;;;;;;5012583;28;20048;-57
2021/06/22 08:37:08;;;;;;;3.63;1.80;;;25.90;60.60;;;;;;5013411;28;20447;-57
2021/06/22 08:39:36;;;;;;;2.85;1.95;;;26.00;60.50;;;;;;5011579;28;20510;-56
2021/06/22 08:42:03;;;;;;;6.03;1.83;;;25.90;60.70;;;;;;5013634;28;20061;-57
2021/06/22 08:44:30;;;;;;;4.32;2.42;;;26.00;61.30;;;;;;5013403;28;20036;-57
2021/06/22 08:46:59;;;;;;;5.47;2.00;;;26.00;60.60;;;;;;5012273;28;20030;-57
2021/06/22 08:49:25;;;;;;;5.07;2.00;;;26.00;60.40;;;;;;5004039;28;20549;-58
2021/06/22 08:51:51;;;;;;;5.22;2.35;;;26.00;60.40;;;;;;5005559;28;20049;-57
2021/06/22 08:54:17;;;;;;;1.92;1.50;;;26.10;60.40;;;;;;5026909;28;20398;-57
2021/06/22 08:56:43;;;;;;;4.60;1.92;;;26.10;60.40;;;;;;5012216;28;20034;-57
2021/06/22 08:59:09;;;;;;;3.45;1.88;;;26.10;60.30;;;;;;5023692;28;20038;-57
2021/06/22 09:01:35;;;;;;;5.25;1.77;;;26.10;60.20;;;;;;5006818;28;20081;-56
2021/06/22 09:04:00;;;;;;;3.83;1.63;;;26.20;60.20;;;;;;4993864;28;20043;-58
2021/06/22 09:06:27;;;;;;;4.53;1.77;;;26.20;60.20;;;;;;5000532;28;20467;-58
2021/06/22 09:08:54;;;;;;;2.78;1.65;;;26.20;60.20;;;;;;5025390;28;20114;-58
2021/06/22 09:11:21;;;;;;;2.35;1.50;;;26.20;60.20;;;;;;5014138;28;20109;-57
2021/06/22 09:14:02;;;;;;;3.35;1.80;;;26.20;60.10;;;;;;5012631;28;20038;-57
2021/06/22 09:16:29;;;;;;;3.10;1.50;;;26.20;60.00;;;;;;5011902;28;20041;-57
2021/06/22 09:19:10;;;;;;;2.72;1.60;;;26.20;60.00;;;;;;5006355;28;20379;-57
2021/06/22 09:21:46;;;;;;;2.92;1.63;;;26.20;60.00;;;;;;5012298;28;20022;-57
2021/06/22 09:24:24;;;;;;;4.40;1.63;;;26.30;60.00;;;;;;5008659;28;20034;-57
2021/06/22 09:26:52;;;;;;;2.45;1.40;;;26.30;60.00;;;;;;5011471;28;20033;-57
2021/06/22 09:29:20;;;;;;;2.70;1.65;;;26.30;59.90;;;;;;5014178;28;20046;-58
2021/06/22 09:31:55;;;;;;;2.40;1.70;;;26.30;60.00;;;;;;5011911;28;20407;-58
2021/06/22 09:34:23;;;;;;;3.55;1.50;;;26.30;59.90;;;;;;5012939;28;20037;-57
2021/06/22 09:36:54;;;;;;;6.72;2.03;;;26.30;59.90;;;;;;5011382;28;20418;-57
2021/06/22 09:39:21;;;;;;;5.65;2.10;;;26.30;59.80;;;;;;5012553;28;20041;-58
2021/06/22 09:41:47;;;;;;;3.42;1.95;;;26.30;59.80;;;;;;5011688;28;20030;-57
2021/06/22 09:44:21;;;;;;;3.47;1.50;;;26.40;59.90;;;;;;5012319;28;20030;-57
2021/06/22 09:46:50;;;;;;;4.35;1.73;;;26.40;59.90;;;;;;5011356;28;20030;-58
2021/06/22 09:49:17;;;;;;;3.25;1.70;;;26.30;59.90;;;;;;5012140;28;20058;-58
2021/06/22 09:51:51;;;;;;;2.78;1.77;;;26.30;59.90;;;;;;5011362;28;20038;-58
2021/06/22 09:54:33;;;;;;;2.33;1.42;;;26.30;60.10;;;;;;5012770;28;20160;-57
2021/06/22 09:57:11;;;;;;;2.65;1.65;;;26.30;60.00;;;;;;5013558;28;20026;-58
2021/06/22 09:59:56;;;;;;;9.15;2.17;;;26.30;60.00;;;;;;5010064;28;20038;-55
2021/06/22 10:02:23;;;;;;;2.80;1.80;;;26.40;60.00;;;;;;5012043;28;20076;-58
2021/06/22 10:04:57;;;;;;;2.45;1.60;;;26.40;59.90;;;;;;5011280;28;20383;-57
2021/06/22 10:07:24;;;;;;;4.07;2.30;;;26.40;59.90;;;;;;5011962;28;20041;-58
2021/06/22 10:09:56;;;;;;;2.97;2.08;;;26.40;59.90;;;;;;5012202;28;20072;-58
2021/06/22 10:12:24;;;;;;;2.35;1.73;;;26.40;59.90;;;;;;5027050;28;20069;-58
2021/06/22 10:14:59;;;;;;;2.40;1.83;;;26.40;59.90;;;;;;5009978;28;20066;-58
2021/06/22 10:17:26;;;;;;;4.20;1.80;;;26.40;59.90;;;;;;5011848;28;20045;-57
2021/06/22 10:19:54;;;;;;;4.00;1.80;;;26.40;59.80;;;;;;5011492;28;20045;-58
2021/06/22 10:22:23;;;;;;;3.22;1.77;;;26.50;59.80;;;;;;5044102;28;20083;-58
2021/06/22 10:24:49;;;;;;;2.92;1.70;;;26.50;59.80;;;;;;5011721;28;20113;-57
2021/06/22 10:27:20;;;;;;;2.90;1.65;;;26.40;59.80;;;;;;5014888;28;20030;-58
2021/06/22 10:29:50;;;;;;;1.88;1.50;;;26.50;59.70;;;;;;5014271;28;20034;-58
2021/06/22 10:32:16;;;;;;;9.00;1.73;;;26.50;59.60;;;;;;5012456;28;20132;-58
2021/06/22 10:34:51;;;;;;;3.00;1.80;;;26.50;59.60;;;;;;5010730;28;20037;-57
2021/06/22 10:37:29;;;;;;;4.45;1.60;;;26.50;59.70;;;;;;5012084;28;20041;-58
2021/06/22 10:40:02;;;;;;;2.50;1.67;;;26.50;59.50;;;;;;5011982;28;20681;-58
2021/06/22 10:42:44;;;;;;;3.88;1.67;;;26.50;59.50;;;;;;5012471;28;20064;-57
2021/06/22 10:45:11;;;;;;;3.45;1.73;;;26.50;59.40;;;;;;5012100;28;20057;-57
2021/06/22 10:47:39;;;;;;;3.42;1.60;;;26.50;59.50;;;;;;5010498;28;20022;-56
2021/06/22 10:50:23;;;;;;;3.42;1.50;;;26.50;59.50;;;;;;5011393;28;20087;-58
2021/06/22 10:52:50;;;;;;;4.15;1.63;;;26.50;59.60;;;;;;5010249;28;20046;-58
2021/06/22 10:55:28;;;;;;;4.65;1.80;;;26.50;59.50;;;;;;5009420;28;20041;-58
2021/06/22 10:57:57;;;;;;;3.05;1.63;;;26.50;59.50;;;;;;5014111;28;20029;-57
2021/06/22 11:00:28;;;;;;;4.97;1.90;;;26.50;59.40;;;;;;5011889;28;20053;-58
2021/06/22 11:02:59;;;;;;;4.95;1.75;;;26.50;59.10;;;;;;5003071;28;20022;-58
2021/06/22 11:05:26;;;;;;;2.30;1.42;;;26.50;59.00;;;;;;5010815;28;20411;-58
2021/06/22 11:08:10;;;;;;;3.95;1.83;;;26.50;59.30;;;;;;5005071;28;20042;-57
2021/06/22 11:10:37;;;;;;;6.30;1.92;;;26.50;59.10;;;;;;5010369;28;20038;-55
2021/06/22 11:13:04;;;;;;;2.28;1.60;;;26.50;58.90;;;;;;5010783;28;20026;-57
2021/06/22 11:15:50;;;;;;;3.30;1.50;;;26.50;59.00;;;;;;5011142;28;20065;-57
2021/06/22 11:18:17;;;;;;;2.97;1.90;;;26.50;58.90;;;;;;5011232;28;20034;-58
2021/06/22 11:21:02;;;;;;;2.58;1.85;;;26.50;59.10;;;;;;5009832;28;20030;-57
2021/06/22 11:23:27;;;;;;;5.28;2.10;;;26.40;59.00;;;;;;5011928;28;20480;-58
2021/06/22 11:26:03;;;;;;;2.55;1.95;;;26.40;59.40;;;;;;5015063;28;20033;-58
2021/06/22 11:28:56;;;;;;;4.63;2.00;;;26.30;59.20;;;;;;5016044;28;20026;-57
2021/06/22 11:31:32;;;;;;;3.47;2.08;;;26.40;59.50;;;;;;5005341;28;20033;-58
2021/06/22 11:34:09;;;;;;;3.03;1.95;;;26.30;59.70;;;;;;5010839;28;20172;-57
2021/06/22 11:36:37;;;;;;;3.70;2.67;;;26.30;59.90;;;;;;5009778;28;20415;-54
2021/06/22 11:39:16;;;;;;;2.92;1.65;;;26.40;59.40;;;;;;5009886;28;20384;-57
2021/06/22 11:42:02;;;;;;;3.80;1.85;;;26.40;59.20;;;;;;5016922;28;20041;-57
2021/06/22 11:44:28;;;;;;;4.95;2.03;;;26.40;59.50;;;;;;5004943;28;20550;-59
2021/06/22 11:46:54;;;;;;;4.30;2.38;;;26.40;59.40;;;;;;5004591;28;20050;-59
2021/06/22 11:49:20;;;;;;;3.42;2.35;;;26.40;58.90;;;;;;5012052;28;20034;-58
2021/06/22 11:51:51;;;;;;;3.72;2.42;;;26.40;58.50;;;;;;5011123;28;20121;-58
2021/06/22 11:54:19;;;;;;;4.55;2.00;;;26.40;58.50;;;;;;5010291;28;20034;-58
2021/06/22 11:56:46;;;;;;;5.82;2.47;;;26.40;58.50;;;;;;5013811;28;20033;-58
2021/06/22 11:59:12;;;;;;;19.38;2.15;;;26.40;58.20;;;;;;5017621;28;20048;-58
2021/06/22 12:01:45;;;;;;;5.13;2.40;;;26.40;58.50;;;;;;5013519;28;20030;-58
2021/06/22 12:04:10;;;;;;;8.68;2.78;;;26.30;58.50;;;;;;5014098;28;20487;-58
2021/06/22 12:06:36;;;;;;;4.70;2.50;;;26.30;58.10;;;;;;5014229;28;20037;-58
2021/06/22 12:09:16;;;;;;;5.88;3.05;;;26.30;57.70;;;;;;5017837;28;20034;-58
2021/06/22 12:11:44;;;;;;;4.43;2.35;;;26.30;57.80;;;;;;5024460;28;20455;-58
2021/06/22 12:14:16;;;;;;;4.80;3.03;;;26.30;57.80;;;;;;5015515;28;20117;-58
2021/06/22 12:16:47;;;;;;;3.05;2.75;;;26.30;57.80;;;;;;5007354;28;20053;-58
2021/06/22 12:19:19;;;;;;;3.10;2.28;;;26.20;57.70;;;;;;4994833;28;20081;-58
2021/06/22 12:21:47;;;;;;;4.78;2.78;;;26.20;57.70;;;;;;4993996;28;20110;-58
2021/06/22 12:24:15;;;;;;;5.45;2.63;;;26.20;57.70;;;;;;4994874;28;20026;-58
2021/06/22 12:26:44;;;;;;;3.80;2.17;;;26.20;57.60;;;;;;4994126;28;20065;-58
2021/06/22 12:29:20;;;;;;;4.32;2.50;;;26.20;57.40;;;;;;5023836;28;20014;-58
2021/06/22 12:32:10;;;;;;;6.30;2.60;;;26.20;57.30;;;;;;5013437;28;20057;-58
2021/06/22 12:34:41;;;;;;;3.15;2.30;;;26.20;57.00;;;;;;5006617;28;20113;-58
2021/06/22 12:37:24;;;;;;;4.53;2.17;;;26.20;57.00;;;;;;5013977;28;20487;-58
2021/06/22 12:39:50;;;;;;;4.47;2.08;;;26.20;56.80;;;;;;5012947;28;20037;-58
2021/06/22 12:42:23;;;;;;;4.65;2.35;;;26.20;56.90;;;;;;5013642;28;20026;-58
2021/06/22 12:44:49;;;;;;;4.47;2.45;;;26.20;57.10;;;;;;5012501;28;20025;-58
2021/06/22 12:47:15;;;;;;;4.20;2.20;;;26.10;57.30;;;;;;5013254;28;20117;-58
2021/06/22 12:49:41;;;;;;;3.90;2.35;;;26.10;57.40;;;;;;5013327;28;20072;-58